createdAt,value
2022-07-29T00:02:25.617Z,101122.34
2022-07-29T00:04:52.370Z,101125.13
2022-07-29T00:07:18.945Z,101118.97
2022-07-29T00:09:51.911Z,101110.94
2022-07-29T00:12:26.499Z,101111.53
2022-07-29T00:14:57.251Z,101110.38
2022-07-29T00:17:25.205Z,101107.88
2022-07-29T00:19:51.898Z,101099.44
2022-07-29T00:22:19.079Z,101096.06
2022-07-29T00:24:45.602Z,101090.28
2022-07-29T00:27:12.135Z,101088.75
2022-07-29T00:29:38.695Z,101086.91
2022-07-29T00:32:05.611Z,101081.88
2022-07-29T00:34:51.053Z,101073.56
2022-07-29T00:37:17.598Z,101073.16
2022-07-29T00:39:44.590Z,101075.25
2022-07-29T00:42:11.714Z,101062.75
2022-07-29T00:44:42.438Z,101058.41
2022-07-29T00:47:10.790Z,101054.88
2022-07-29T00:49:39.640Z,101048.56
2022-07-29T00:52:07.031Z,101050.41
2022-07-29T00:54:34.793Z,101048.00
2022-07-29T00:57:01.857Z,101052.06
2022-07-29T00:59:35.117Z,101044.88
2022-07-29T01:02:03.922Z,101044.50
2022-07-29T01:04:31.962Z,101037.75
2022-07-29T01:06:59.631Z,101026.22
2022-07-29T01:09:40.821Z,101036.75
2022-07-29T01:12:22.466Z,101025.38
2022-07-29T01:14:50.680Z,101027.63
2022-07-29T01:17:50.413Z,101032.97
2022-07-29T01:20:57.331Z,101025.34
2022-07-29T01:24:02.222Z,101027.31
2022-07-29T01:26:50.109Z,101038.56
2022-07-29T01:29:38.992Z,101044.16
2022-07-29T01:32:27.591Z,101038.28
2022-07-29T01:35:02.129Z,101038.81
2022-07-29T01:37:40.918Z,101035.44
2022-07-29T01:40:19.362Z,101039.25
2022-07-29T01:42:51.421Z,101035.63
2022-07-29T01:45:28.876Z,101032.53
2022-07-29T01:48:03.359Z,101029.56
2022-07-29T01:50:45.517Z,101026.06
2022-07-29T01:53:15.919Z,101028.59
2022-07-29T01:55:45.789Z,101027.22
2022-07-29T01:58:15.222Z,101026.50
2022-07-29T02:00:43.671Z,101021.59
2022-07-29T02:03:12.692Z,101019.34
2022-07-29T02:05:42.032Z,101021.88
2022-07-29T02:08:10.485Z,101025.25
2022-07-29T02:10:40.320Z,101028.88
2022-07-29T02:13:10.424Z,101033.38
2022-07-29T02:15:38.363Z,101043.28
2022-07-29T02:18:18.522Z,101056.31
2022-07-29T02:20:50.661Z,101049.22
2022-07-29T02:23:21.524Z,101058.25
2022-07-29T02:25:52.408Z,101058.09
2022-07-29T02:28:21.251Z,101060.75
2022-07-29T02:30:49.611Z,101051.75
2022-07-29T02:33:19.302Z,101047.28
2022-07-29T02:35:48.045Z,101049.75
2022-07-29T02:38:35.747Z,101052.84
2022-07-29T02:41:06.989Z,101056.75
2022-07-29T02:43:35.147Z,101053.41
2022-07-29T02:46:05.557Z,101046.97
2022-07-29T02:48:44.981Z,101046.13
2022-07-29T02:51:43.672Z,101039.69
2022-07-29T02:54:12.284Z,101055.09
2022-07-29T02:56:41.394Z,101057.16
2022-07-29T02:59:12.619Z,101068.41
2022-07-29T03:01:44.595Z,101067.75
2022-07-29T03:04:14.412Z,101064.38
2022-07-29T03:06:44.077Z,101069.19
2022-07-29T03:09:13.758Z,101070.44
2022-07-29T03:11:49.925Z,101087.13
2022-07-29T03:14:21.755Z,101097.19
2022-07-29T03:16:49.711Z,101102.91
2022-07-29T03:19:17.239Z,101116.59
2022-07-29T03:21:43.813Z,101115.94
2022-07-29T03:24:11.074Z,101118.53
2022-07-29T03:26:38.479Z,101119.91
2022-07-29T03:29:05.118Z,101132.50
2022-07-29T03:31:33.340Z,101133.59
2022-07-29T03:34:00.061Z,101131.88
2022-07-29T03:36:26.758Z,101128.50
2022-07-29T03:38:54.034Z,101129.44
2022-07-29T03:41:25.183Z,101120.38
2022-07-29T03:43:54.422Z,101117.06
2022-07-29T03:46:24.858Z,101118.50
2022-07-29T03:48:57.433Z,101113.69
2022-07-29T03:51:33.282Z,101088.00
2022-07-29T03:54:09.961Z,101074.25
2022-07-29T03:56:47.571Z,101060.88
2022-07-29T03:59:20.723Z,101064.09
2022-07-29T04:01:48.091Z,101071.88
2022-07-29T04:04:15.015Z,101066.03
2022-07-29T04:06:44.219Z,101066.25
2022-07-29T04:09:11.735Z,101072.03
2022-07-29T04:12:03.139Z,101082.16
2022-07-29T04:14:32.863Z,101078.03
2022-07-29T04:17:04.805Z,101081.16
2022-07-29T04:19:32.395Z,101068.50
2022-07-29T04:22:00.528Z,101066.75
2022-07-29T04:24:27.600Z,101069.28
2022-07-29T04:26:54.562Z,101070.56
2022-07-29T04:29:21.736Z,101072.38
2022-07-29T04:31:48.504Z,101079.31
2022-07-29T04:34:15.277Z,101083.31
2022-07-29T04:36:43.835Z,101082.91
2022-07-29T04:39:11.273Z,101077.44
2022-07-29T04:41:38.041Z,101075.97
2022-07-29T04:44:07.176Z,101079.97
2022-07-29T04:46:35.739Z,101074.78
2022-07-29T04:49:04.164Z,101075.81
2022-07-29T04:51:30.771Z,101063.66
2022-07-29T04:53:57.513Z,101053.03
2022-07-29T04:56:24.433Z,101059.06
2022-07-29T04:58:51.898Z,101057.78
2022-07-29T05:01:18.825Z,101047.38
2022-07-29T05:03:46.345Z,101047.38
2022-07-29T05:06:14.628Z,101061.47
2022-07-29T05:08:41.928Z,101057.97
2022-07-29T05:11:11.547Z,101066.06
2022-07-29T05:13:45.464Z,101067.00
2022-07-29T05:16:15.315Z,101076.22
2022-07-29T05:18:43.092Z,101075.09
2022-07-29T05:21:10.942Z,101075.88
2022-07-29T05:23:37.949Z,101078.94
2022-07-29T05:26:04.561Z,101082.81
2022-07-29T05:28:35.875Z,101082.50
2022-07-29T05:31:02.768Z,101088.19
2022-07-29T05:33:35.323Z,101089.25
2022-07-29T05:36:06.654Z,101091.78
2022-07-29T05:38:35.504Z,101084.59
2022-07-29T05:41:02.287Z,101088.81
2022-07-29T05:43:29.464Z,101085.34
2022-07-29T05:45:56.390Z,101082.69
2022-07-29T05:48:23.122Z,101087.16
2022-07-29T05:50:49.938Z,101086.41
2022-07-29T05:53:19.871Z,101087.97
2022-07-29T05:55:51.407Z,101097.91
2022-07-29T05:58:18.062Z,101099.75
2022-07-29T06:00:45.545Z,101093.59
2022-07-29T06:03:12.274Z,101107.66
2022-07-29T06:05:38.940Z,101106.66
2022-07-29T06:08:08.799Z,101119.00
2022-07-29T06:10:36.190Z,101122.75
2022-07-29T06:13:02.837Z,101124.06
2022-07-29T06:15:29.413Z,101124.47
2022-07-29T06:17:59.299Z,101135.59
2022-07-29T06:20:30.774Z,101131.63
2022-07-29T06:22:57.979Z,101149.31
2022-07-29T06:25:24.628Z,101150.88
2022-07-29T06:27:51.223Z,101151.78
2022-07-29T06:30:17.906Z,101156.47
2022-07-29T06:32:44.448Z,101162.16
2022-07-29T06:35:41.068Z,101164.22
2022-07-29T06:37:59.623Z,101176.44
2022-07-29T06:40:45.693Z,101172.16
2022-07-29T06:43:12.378Z,101170.09
2022-07-29T06:45:42.210Z,101170.91
2022-07-29T06:48:10.011Z,101173.44
2022-07-29T06:50:36.829Z,101165.50
2022-07-29T06:53:03.814Z,101164.03
2022-07-29T06:55:30.569Z,101163.31
2022-07-29T06:57:57.148Z,101157.47
2022-07-29T07:00:24.246Z,101157.09
2022-07-29T07:02:51.219Z,101152.38
2022-07-29T07:05:17.838Z,101165.91
2022-07-29T07:07:44.398Z,101162.66
2022-07-29T07:10:11.033Z,101172.88
2022-07-29T07:12:37.650Z,101171.31
2022-07-29T07:15:04.714Z,101173.31
2022-07-29T07:17:31.353Z,101181.13
2022-07-29T07:19:57.923Z,101174.53
2022-07-29T07:22:24.485Z,101173.03
2022-07-29T07:24:51.189Z,101177.19
2022-07-29T07:27:17.786Z,101168.84
2022-07-29T07:29:44.534Z,101167.47
2022-07-29T07:32:11.165Z,101175.22
2022-07-29T07:34:38.949Z,101168.84
2022-07-29T07:37:07.011Z,101169.81
2022-07-29T07:39:33.801Z,101163.13
2022-07-29T07:42:00.431Z,101150.84
2022-07-29T07:44:27.115Z,101151.44
2022-07-29T07:46:54.653Z,101151.69
2022-07-29T07:49:21.732Z,101149.78
2022-07-29T07:51:50.505Z,101145.44
2022-07-29T07:54:18.650Z,101147.84
2022-07-29T07:56:49.950Z,101143.25
2022-07-29T07:59:19.753Z,101150.03
2022-07-29T08:01:50.441Z,101151.84
2022-07-29T08:04:27.523Z,101148.06
2022-07-29T08:06:56.571Z,101144.09
2022-07-29T08:09:29.626Z,101145.19
2022-07-29T08:11:57.806Z,101135.16
2022-07-29T08:14:24.546Z,101135.75
2022-07-29T08:16:52.375Z,101133.94
2022-07-29T08:19:19.251Z,101146.66
2022-07-29T08:21:46.301Z,101156.06
2022-07-29T08:24:31.366Z,101170.81
2022-07-29T08:26:58.036Z,101166.34
2022-07-29T08:29:25.230Z,101170.34
2022-07-29T08:31:52.524Z,101172.63
2022-07-29T08:34:19.282Z,101161.00
2022-07-29T08:36:53.646Z,101153.03
2022-07-29T08:39:20.326Z,101154.25
2022-07-29T08:41:56.599Z,101146.75
2022-07-29T08:44:30.793Z,101141.31
2022-07-29T08:46:58.110Z,101145.69
2022-07-29T08:49:24.809Z,101159.56
2022-07-29T08:51:52.479Z,101156.66
2022-07-29T08:54:19.771Z,101154.25
2022-07-29T08:56:50.876Z,101142.31
2022-07-29T08:59:21.975Z,101154.00
2022-07-29T09:01:50.599Z,101153.78
2022-07-29T09:04:19.676Z,101148.22
2022-07-29T09:06:50.343Z,101143.84
2022-07-29T09:09:17.041Z,101155.84
2022-07-29T09:11:43.928Z,101162.94
2022-07-29T09:14:13.636Z,101157.28
2022-07-29T09:16:54.023Z,101164.78
2022-07-29T09:19:38.860Z,101165.59
2022-07-29T09:22:13.073Z,101172.88
2022-07-29T09:24:46.163Z,101163.94
2022-07-29T09:27:26.816Z,101157.50
2022-07-29T09:29:58.444Z,101161.69
2022-07-29T09:32:25.192Z,101161.22
2022-07-29T09:34:53.684Z,101162.28
2022-07-29T09:37:30.527Z,101170.72
2022-07-29T09:39:57.155Z,101179.19
2022-07-29T09:42:33.356Z,101168.34
2022-07-29T09:44:59.977Z,101170.19
2022-07-29T09:47:42.371Z,101164.94
2022-07-29T09:50:09.125Z,101177.47
2022-07-29T09:52:46.487Z,101174.84
2022-07-29T09:55:13.859Z,101160.06
2022-07-29T09:57:45.604Z,101173.16
2022-07-29T10:00:16.221Z,101178.38
2022-07-29T10:02:45.134Z,101178.91
2022-07-29T10:05:42.943Z,101181.03
2022-07-29T10:08:11.100Z,101181.53
2022-07-29T10:10:42.785Z,101180.41
2022-07-29T10:13:18.403Z,101184.94
2022-07-29T10:15:46.783Z,101184.34
2022-07-29T10:18:15.500Z,101189.09
2022-07-29T10:20:42.425Z,101182.66
2022-07-29T10:23:10.072Z,101182.78
2022-07-29T10:25:37.064Z,101177.22
2022-07-29T10:28:03.807Z,101181.28
2022-07-29T10:30:30.461Z,101186.50
2022-07-29T10:33:02.798Z,101183.00
2022-07-29T10:35:43.111Z,101188.63
2022-07-29T10:38:35.225Z,101190.34
2022-07-29T10:41:44.357Z,101186.09
2022-07-29T10:44:19.480Z,101184.94
2022-07-29T10:46:51.498Z,101188.63
2022-07-29T10:49:25.284Z,101184.75
2022-07-29T10:52:00.296Z,101181.41
2022-07-29T10:54:38.251Z,101183.84
2022-07-29T10:57:53.380Z,101178.75
2022-07-29T11:00:19.551Z,101190.59
2022-07-29T11:02:49.992Z,101193.69
2022-07-29T11:05:20.174Z,101191.78
2022-07-29T11:08:19.560Z,101187.19
2022-07-29T11:10:48.362Z,101190.59
2022-07-29T11:13:44.636Z,101191.94
2022-07-29T11:16:13.774Z,101181.31
2022-07-29T11:19:30.755Z,101183.72
2022-07-29T11:21:58.761Z,101191.59
2022-07-29T11:24:29.263Z,101182.34
2022-07-29T11:27:21.428Z,101183.34
2022-07-29T11:29:56.733Z,101182.94
2022-07-29T11:32:29.294Z,101182.94
2022-07-29T11:35:37.846Z,101181.09
2022-07-29T11:38:28.369Z,101179.50
2022-07-29T11:41:23.801Z,101178.44
2022-07-29T11:46:47.996Z,101187.09
2022-07-29T11:49:22.100Z,101182.16
2022-07-29T11:52:02.551Z,101177.75
2022-07-29T11:54:38.907Z,101179.72
2022-07-29T11:57:22.689Z,101178.94
2022-07-29T11:59:49.696Z,101185.41
2022-07-29T12:02:37.220Z,101176.00
2022-07-29T12:05:10.769Z,101177.50
2022-07-29T12:07:03.545Z,101180.34
2022-07-29T12:07:39.532Z,101176.00
2022-07-29T12:10:11.633Z,101179.00
2022-07-29T12:12:53.699Z,101179.97
2022-07-29T12:15:24.958Z,101177.88
2022-07-29T12:18:19.270Z,101172.03
2022-07-29T12:20:46.942Z,101178.66
2022-07-29T12:23:14.109Z,101178.47
2022-07-29T12:25:44.465Z,101182.19
2022-07-29T12:28:26.808Z,101182.75
2022-07-29T12:30:54.476Z,101180.56
2022-07-29T12:33:22.508Z,101186.75
2022-07-29T12:36:06.895Z,101186.16
2022-07-29T12:38:41.178Z,101172.94
2022-07-29T12:41:08.102Z,101181.34
2022-07-29T12:43:34.742Z,101182.25
2022-07-29T12:46:13.798Z,101171.53
2022-07-29T12:48:42.785Z,101180.34
2022-07-29T12:51:12.462Z,101177.53
2022-07-29T12:53:39.973Z,101175.81
2022-07-29T12:56:41.320Z,101166.03
2022-07-29T12:59:16.307Z,101169.22
2022-07-29T13:01:44.073Z,101173.13
2022-07-29T13:04:10.856Z,101159.84
2022-07-29T13:06:50.998Z,101163.16
2022-07-29T13:09:20.242Z,101170.66
2022-07-29T13:11:51.358Z,101168.28
2022-07-29T13:14:33.210Z,101163.84
2022-07-29T13:17:07.399Z,101159.47
2022-07-29T13:19:51.854Z,101168.06
2022-07-29T13:22:30.187Z,101176.16
2022-07-29T13:24:59.414Z,101170.38
2022-07-29T13:27:28.447Z,101173.03
2022-07-29T13:29:57.512Z,101173.41
2022-07-29T13:32:29.168Z,101170.19
2022-07-29T13:34:57.469Z,101170.28
2022-07-29T13:37:24.230Z,101169.47
2022-07-29T13:39:52.966Z,101164.75
2022-07-29T13:42:20.506Z,101160.84
2022-07-29T13:44:47.120Z,101158.25
2022-07-29T13:47:13.878Z,101167.97
2022-07-29T13:49:40.587Z,101161.00
2022-07-29T13:52:08.375Z,101159.38
2022-07-29T13:54:41.945Z,101150.34
2022-07-29T13:57:09.386Z,101161.53
2022-07-29T13:59:36.191Z,101156.88
2022-07-29T14:02:03.538Z,101154.19
2022-07-29T14:04:30.254Z,101159.44
2022-07-29T14:06:56.907Z,101155.09
2022-07-29T14:09:23.899Z,101149.97
2022-07-29T14:11:52.223Z,101152.88
2022-07-29T14:14:18.854Z,101152.19
2022-07-29T14:16:47.781Z,101155.03
2022-07-29T14:19:18.659Z,101155.56
2022-07-29T14:21:45.642Z,101147.44
2022-07-29T14:24:17.666Z,101151.72
2022-07-29T14:26:48.408Z,101159.13
2022-07-29T14:29:15.039Z,101158.44
2022-07-29T14:31:41.766Z,101155.25
2022-07-29T14:34:08.383Z,101149.25
2022-07-29T14:36:35.771Z,101149.16
2022-07-29T14:39:02.377Z,101148.94
2022-07-29T14:41:29.198Z,101151.19
2022-07-29T14:43:55.986Z,101155.28
2022-07-29T14:46:22.907Z,101148.44
2022-07-29T14:48:49.707Z,101151.75
2022-07-29T14:51:16.470Z,101145.66
2022-07-29T14:53:43.082Z,101151.72
2022-07-29T14:56:34.305Z,101153.72
2022-07-29T14:58:59.730Z,101160.06
2022-07-29T15:01:26.361Z,101165.09
2022-07-29T15:03:55.761Z,101160.44
2022-07-29T15:06:26.178Z,101158.78
2022-07-29T15:08:52.864Z,101154.09
2022-07-29T15:11:19.563Z,101164.56
2022-07-29T15:13:46.131Z,101167.25
2022-07-29T15:16:12.788Z,101164.09
2022-07-29T15:18:39.503Z,101162.25
2022-07-29T15:21:07.808Z,101158.75
2022-07-29T15:23:37.175Z,101163.53
2022-07-29T15:26:07.567Z,101165.59
2022-07-29T15:28:34.167Z,101163.00
2022-07-29T15:31:01.350Z,101162.91
2022-07-29T15:33:28.490Z,101162.81
2022-07-29T15:35:57.288Z,101169.75
2022-07-29T15:38:28.931Z,101158.06
2022-07-29T15:40:55.760Z,101163.91
2022-07-29T15:43:23.026Z,101158.63
2022-07-29T15:46:08.427Z,101162.19
2022-07-29T15:48:39.970Z,101162.16
2022-07-29T15:51:06.560Z,101159.50
2022-07-29T15:53:33.823Z,101166.94
2022-07-29T15:56:02.173Z,101158.03
2022-07-29T15:58:29.145Z,101157.50
2022-07-29T16:00:56.324Z,101157.53
2022-07-29T16:03:23.292Z,101158.22
2022-07-29T16:05:50.362Z,101152.84
2022-07-29T16:08:17.397Z,101156.47
2022-07-29T16:10:44.302Z,101154.81
2022-07-29T16:13:10.908Z,101152.66
2022-07-29T16:15:43.877Z,101153.84
2022-07-29T16:18:10.506Z,101148.13
2022-07-29T16:20:37.565Z,101140.09
2022-07-29T16:23:04.212Z,101140.44
2022-07-29T16:25:57.418Z,101149.16
2022-07-29T16:28:21.832Z,101142.81
2022-07-29T16:30:48.805Z,101148.16
2022-07-29T16:33:15.488Z,101144.16
2022-07-29T16:35:42.066Z,101143.78
2022-07-29T16:38:08.595Z,101142.44
2022-07-29T16:40:35.404Z,101141.75
2022-07-29T16:43:01.942Z,101143.22
2022-07-29T16:45:31.474Z,101139.03
2022-07-29T16:48:10.481Z,101143.06
2022-07-29T16:50:38.476Z,101139.56
2022-07-29T16:53:05.033Z,101147.13
2022-07-29T16:55:31.656Z,101148.16
2022-07-29T16:57:58.314Z,101144.09
2022-07-29T17:00:24.892Z,101145.75
2022-07-29T17:02:51.510Z,101141.03
2022-07-29T17:05:18.264Z,101140.38
2022-07-29T17:07:44.898Z,101142.53
2022-07-29T17:10:11.733Z,101150.31
2022-07-29T17:12:39.364Z,101156.19
2022-07-29T17:15:08.580Z,101144.13
2022-07-29T17:17:38.705Z,101158.41
2022-07-29T17:20:21.222Z,101150.50
2022-07-29T17:22:47.862Z,101151.16
2022-07-29T17:25:21.189Z,101158.22
2022-07-29T17:27:50.633Z,101153.53
2022-07-29T17:30:17.913Z,101152.53
2022-07-29T17:32:44.766Z,101153.34
2022-07-29T17:35:30.818Z,101149.34
2022-07-29T17:37:57.555Z,101153.41
2022-07-29T17:40:24.240Z,101160.63
2022-07-29T17:42:51.148Z,101166.84
2022-07-29T17:45:18.421Z,101165.47
2022-07-29T17:47:45.364Z,101169.63
2022-07-29T17:50:12.074Z,101173.94
2022-07-29T17:52:39.204Z,101175.66
2022-07-29T17:55:07.428Z,101176.13
2022-07-29T17:57:34.199Z,101174.66
2022-07-29T18:00:00.912Z,101177.53
2022-07-29T18:02:28.468Z,101165.53
2022-07-29T18:04:55.359Z,101176.47
2022-07-29T18:07:21.974Z,101170.50
2022-07-29T18:09:48.618Z,101182.25
2022-07-29T18:12:15.241Z,101186.72
2022-07-29T18:14:42.088Z,101184.38
2022-07-29T18:17:08.760Z,101193.41
2022-07-29T18:19:35.416Z,101192.78
2022-07-29T18:22:05.221Z,101200.53
2022-07-29T18:24:32.943Z,101197.69
2022-07-29T18:26:59.993Z,101205.41
2022-07-29T18:29:28.951Z,101208.50
2022-07-29T18:31:56.275Z,101210.09
2022-07-29T18:34:22.899Z,101201.19
2022-07-29T18:36:49.482Z,101200.38
2022-07-29T18:39:21.243Z,101200.81
2022-07-29T18:41:50.604Z,101204.53
2022-07-29T18:44:19.120Z,101201.41
2022-07-29T18:46:55.442Z,101198.34
2022-07-29T18:49:22.728Z,101203.16
2022-07-29T18:51:50.095Z,101202.25
2022-07-29T18:54:17.554Z,101197.41
2022-07-29T18:56:45.429Z,101200.09
2022-07-29T18:59:17.144Z,101201.13
2022-07-29T19:01:44.695Z,101200.72
2022-07-29T19:04:15.301Z,101207.41
2022-07-29T19:06:42.161Z,101204.38
2022-07-29T19:09:09.253Z,101201.81
2022-07-29T19:11:36.769Z,101204.78
2022-07-29T19:14:04.772Z,101209.41
2022-07-29T19:16:31.949Z,101206.19
2022-07-29T19:18:58.670Z,101213.06
2022-07-29T19:21:25.364Z,101204.88
2022-07-29T19:24:01.908Z,101212.56
2022-07-29T19:26:36.404Z,101205.66
2022-07-29T19:29:03.426Z,101204.13
2022-07-29T19:31:30.412Z,101211.63
2022-07-29T19:33:57.138Z,101211.94
2022-07-29T19:36:23.694Z,101211.06
2022-07-29T19:38:51.310Z,101219.72
2022-07-29T19:41:17.939Z,101223.34
2022-07-29T19:43:51.727Z,101223.97
2022-07-29T19:46:20.415Z,101227.63
2022-07-29T19:48:47.078Z,101228.63
2022-07-29T19:51:13.789Z,101237.13
2022-07-29T19:53:40.325Z,101232.91
2022-07-29T19:56:08.969Z,101240.94
2022-07-29T19:58:36.077Z,101238.41
2022-07-29T20:01:03.052Z,101239.84
2022-07-29T20:03:40.358Z,101247.19
2022-07-29T20:06:07.599Z,101244.53
2022-07-29T20:08:34.620Z,101252.41
2022-07-29T20:11:01.221Z,101252.41
2022-07-29T20:13:27.901Z,101250.75
2022-07-29T20:15:54.552Z,101254.72
2022-07-29T20:18:21.328Z,101257.84
2022-07-29T20:20:49.537Z,101262.03
2022-07-29T20:23:18.251Z,101255.00
2022-07-29T20:25:45.304Z,101263.75
2022-07-29T20:28:11.905Z,101270.06
2022-07-29T20:30:38.788Z,101268.25
2022-07-29T20:33:05.718Z,101270.94
2022-07-29T20:35:32.436Z,101275.59
2022-07-29T20:38:00.309Z,101275.75
2022-07-29T20:40:27.688Z,101273.06
2022-07-29T20:42:55.223Z,101275.75
2022-07-29T20:45:23.379Z,101278.28
2022-07-29T20:47:51.622Z,101277.59
2022-07-29T20:50:19.106Z,101274.75
2022-07-29T20:52:45.775Z,101276.91
2022-07-29T20:55:12.434Z,101281.56
2022-07-29T20:57:40.019Z,101275.19
2022-07-29T21:00:07.798Z,101278.72
2022-07-29T21:02:34.730Z,101280.19
2022-07-29T21:05:01.441Z,101285.81
2022-07-29T21:07:28.069Z,101291.19
2022-07-29T21:09:54.667Z,101289.66
2022-07-29T21:12:21.495Z,101294.31
2022-07-29T21:14:48.216Z,101295.16
2022-07-29T21:17:16.625Z,101297.28
2022-07-29T21:19:43.289Z,101294.91
2022-07-29T21:22:10.535Z,101296.59
2022-07-29T21:24:37.495Z,101302.69
2022-07-29T21:27:23.183Z,101305.28
2022-07-29T21:29:50.073Z,101302.19
2022-07-29T21:32:30.130Z,101308.13
2022-07-29T21:34:58.022Z,101314.69
2022-07-29T21:37:24.805Z,101307.81
2022-07-29T21:39:51.616Z,101312.78
2022-07-29T21:42:18.603Z,101307.94
2022-07-29T21:44:45.192Z,101319.22
2022-07-29T21:47:11.932Z,101316.41
2022-07-29T21:49:39.085Z,101317.78
2022-07-29T21:52:06.173Z,101316.97
2022-07-29T21:54:34.769Z,101310.72
2022-07-29T21:57:02.013Z,101313.41
2022-07-29T21:59:29.146Z,101312.56
2022-07-29T22:01:55.917Z,101321.63
2022-07-29T22:04:22.604Z,101318.75
2022-07-29T22:06:49.541Z,101319.63
2022-07-29T22:09:16.132Z,101313.84
2022-07-29T22:11:43.554Z,101310.88
2022-07-29T22:14:10.389Z,101312.69
2022-07-29T22:16:37.612Z,101312.69
2022-07-29T22:19:04.244Z,101316.22
2022-07-29T22:21:31.495Z,101311.00
2022-07-29T22:23:58.344Z,101315.22
2022-07-29T22:26:24.997Z,101321.41
2022-07-29T22:28:51.577Z,101315.91
2022-07-29T22:31:18.515Z,101315.91
2022-07-29T22:33:45.229Z,101311.56
2022-07-29T22:36:11.809Z,101315.53
2022-07-29T22:38:38.470Z,101314.84
2022-07-29T22:41:05.342Z,101311.75
2022-07-29T22:43:31.992Z,101309.91
2022-07-29T22:45:58.850Z,101304.00
2022-07-29T22:48:25.498Z,101306.56
2022-07-29T22:50:52.114Z,101302.06
2022-07-29T22:53:18.800Z,101303.88
2022-07-29T22:55:45.414Z,101304.88
2022-07-29T22:58:12.069Z,101304.88
2022-07-29T23:00:38.697Z,101298.41
2022-07-29T23:03:05.259Z,101290.25
2022-07-29T23:05:32.509Z,101290.69
2022-07-29T23:07:59.280Z,101285.94
2022-07-29T23:10:26.164Z,101277.47
2022-07-29T23:12:53.004Z,101279.91
2022-07-29T23:15:19.785Z,101280.44
2022-07-29T23:17:46.710Z,101273.38
2022-07-29T23:20:14.909Z,101271.84
2022-07-29T23:22:41.924Z,101271.28
2022-07-29T23:25:09.095Z,101270.44
2022-07-29T23:27:35.939Z,101277.59
2022-07-29T23:30:03.265Z,101273.25
2022-07-29T23:32:30.016Z,101267.06
2022-07-29T23:34:56.959Z,101265.38
2022-07-29T23:37:23.517Z,101275.66
2022-07-29T23:39:50.184Z,101276.78
2022-07-29T23:42:16.753Z,101272.13
2022-07-29T23:44:43.303Z,101273.84
2022-07-29T23:47:09.928Z,101273.13
2022-07-29T23:49:36.453Z,101269.88
2022-07-29T23:52:03.074Z,101264.66
2022-07-29T23:54:29.740Z,101264.13
2022-07-29T23:56:57.833Z,101263.84
2022-07-29T23:59:24.886Z,101247.81
